sensor_id;sensor_type;location;lat;lon;timestamp;pressure;altitude;pressure_sealevel;temperature;humidity
51928;BME280;37953;52.806;18.270;2022-10-31T00:01:27;100964.69;;;12.09;100.00
51928;BME280;37953;52.806;18.270;2022-10-31T00:03:53;100954.22;;;12.04;100.00
51928;BME280;37953;52.806;18.270;2022-10-31T00:06:21;100950.75;;;12.02;100.00
51928;BME280;37953;52.806;18.270;2022-10-31T00:08:52;100951.63;;;12.02;100.00
51928;BME280;37953;52.806;18.270;2022-10-31T00:11:18;100957.69;;;11.98;100.00
51928;BME280;37953;52.806;18.270;2022-10-31T00:13:44;100954.19;;;11.98;100.00
51928;BME280;37953;52.806;18.270;2022-10-31T00:16:30;100958.56;;;12.02;100.00
51928;BME280;37953;52.806;18.270;2022-10-31T00:18:59;100957.66;;;11.97;100.00
51928;BME280;37953;52.806;18.270;2022-10-31T00:21:25;100952.44;;;11.92;100.00
51928;BME280;37953;52.806;18.270;2022-10-31T00:23:51;100957.66;;;11.92;100.00
51928;BME280;37953;52.806;18.270;2022-10-31T00:26:18;100957.63;;;11.91;100.00
51928;BME280;37953;52.806;18.270;2022-10-31T00:28:44;100958.50;;;11.88;100.00
51928;BME280;37953;52.806;18.270;2022-10-31T00:31:11;100957.63;;;11.89;100.00
51928;BME280;37953;52.806;18.270;2022-10-31T00:33:39;100960.22;;;11.88;100.00
51928;BME280;37953;52.806;18.270;2022-10-31T00:36:13;100959.34;;;11.89;100.00
51928;BME280;37953;52.806;18.270;2022-10-31T00:38:40;100963.72;;;11.88;100.00
51928;BME280;37953;52.806;18.270;2022-10-31T00:41:06;100958.50;;;11.88;100.00
51928;BME280;37953;52.806;18.270;2022-10-31T00:43:32;100955.91;;;11.88;100.00
51928;BME280;37953;52.806;18.270;2022-10-31T00:45:58;100952.38;;;11.85;100.00
51928;BME280;37953;52.806;18.270;2022-10-31T00:48:24;100961.91;;;11.87;100.00
51928;BME280;37953;52.806;18.270;2022-10-31T00:50:50;100961.06;;;11.87;100.00
51928;BME280;37953;52.806;18.270;2022-10-31T00:53:16;100960.19;;;11.86;100.00
51928;BME280;37953;52.806;18.270;2022-10-31T00:55:42;100966.25;;;11.87;100.00
51928;BME280;37953;52.806;18.270;2022-10-31T00:58:08;100952.38;;;11.85;100.00
51928;BME280;37953;52.806;18.270;2022-10-31T01:00:34;100958.44;;;11.84;100.00
51928;BME280;37953;52.806;18.270;2022-10-31T01:03:00;100957.56;;;11.83;100.00
51928;BME280;37953;52.806;18.270;2022-10-31T01:05:26;100948.91;;;11.81;100.00
51928;BME280;37953;52.806;18.270;2022-10-31T01:07:52;100948.91;;;11.81;100.00
51928;BME280;37953;52.806;18.270;2022-10-31T01:10:19;100953.19;;;11.80;100.00
51928;BME280;37953;52.806;18.270;2022-10-31T01:12:47;100953.22;;;11.79;100.00
51928;BME280;37953;52.806;18.270;2022-10-31T01:15:17;100950.59;;;11.77;100.00
51928;BME280;37953;52.806;18.270;2022-10-31T01:17:43;100956.66;;;11.78;100.00
51928;BME280;37953;52.806;18.270;2022-10-31T01:20:10;100954.94;;;11.78;100.00
51928;BME280;37953;52.806;18.270;2022-10-31T01:22:38;100945.38;;;11.73;100.00
51928;BME280;37953;52.806;18.270;2022-10-31T01:25:04;100954.94;;;11.77;100.00
51928;BME280;37953;52.806;18.270;2022-10-31T01:27:31;100942.75;;;11.74;100.00
51928;BME280;37953;52.806;18.270;2022-10-31T01:30:04;100952.31;;;11.75;100.00
51928;BME280;37953;52.806;18.270;2022-10-31T01:32:30;100957.50;;;11.74;100.00
51928;BME280;37953;52.806;18.270;2022-10-31T01:34:56;100949.69;;;11.71;100.00
51928;BME280;37953;52.806;18.270;2022-10-31T01:37:22;100953.16;;;11.71;100.00
51928;BME280;37953;52.806;18.270;2022-10-31T01:39:49;100960.13;;;11.74;100.00
51928;BME280;37953;52.806;18.270;2022-10-31T01:42:19;100956.66;;;11.73;100.00
51928;BME280;37953;52.806;18.270;2022-10-31T01:45:09;100944.50;;;11.74;100.00
51928;BME280;37953;52.806;18.270;2022-10-31T01:47:44;100952.28;;;11.72;100.00
51928;BME280;37953;52.806;18.270;2022-10-31T01:50:23;100954.88;;;11.72;100.00
51928;BME280;37953;52.806;18.270;2022-10-31T01:52:58;100951.41;;;11.70;100.00
51928;BME280;37953;52.806;18.270;2022-10-31T01:55:40;100950.56;;;11.71;100.00
51928;BME280;37953;52.806;18.270;2022-10-31T01:58:10;100947.94;;;11.70;100.00
51928;BME280;37953;52.806;18.270;2022-10-31T02:00:38;100953.16;;;11.70;100.00
51928;BME280;37953;52.806;18.270;2022-10-31T02:03:05;100952.28;;;11.69;100.00
51928;BME280;37953;52.806;18.270;2022-10-31T02:05:31;100960.09;;;11.69;100.00
51928;BME280;37953;52.806;18.270;2022-10-31T02:08:29;100962.72;;;11.74;100.00
51928;BME280;37953;52.806;18.270;2022-10-31T02:11:00;100964.44;;;11.72;100.00
51928;BME280;37953;52.806;18.270;2022-10-31T02:13:28;100959.22;;;11.70;100.00
51928;BME280;37953;52.806;18.270;2022-10-31T02:15:57;100960.97;;;11.70;100.00
51928;BME280;37953;52.806;18.270;2022-10-31T02:18:25;100967.03;;;11.70;100.00
51928;BME280;37953;52.806;18.270;2022-10-31T02:32:27;100962.72;;;11.75;100.00
51928;BME280;37953;52.806;18.270;2022-10-31T02:35:39;100967.06;;;11.76;100.00
51928;BME280;37953;52.806;18.270;2022-10-31T02:38:49;100973.16;;;11.77;100.00
51928;BME280;37953;52.806;18.270;2022-10-31T02:44:30;100979.19;;;11.74;100.00
51928;BME280;37953;52.806;18.270;2022-10-31T02:47:17;100977.50;;;11.75;100.00
51928;BME280;37953;52.806;18.270;2022-10-31T02:50:00;100976.63;;;11.77;100.00
51928;BME280;37953;52.806;18.270;2022-10-31T02:52:30;100985.28;;;11.76;100.00
51928;BME280;37953;52.806;18.270;2022-10-31T02:54:56;100970.50;;;11.72;100.00
51928;BME280;37953;52.806;18.270;2022-10-31T02:57:29;100960.13;;;11.74;100.00
51928;BME280;37953;52.806;18.270;2022-10-31T03:00:07;100970.59;;;11.81;100.00
51928;BME280;37953;52.806;18.270;2022-10-31T03:05:28;100971.44;;;11.80;100.00
51928;BME280;37953;52.806;18.270;2022-10-31T03:08:36;100967.13;;;11.84;100.00
51928;BME280;37953;52.806;18.270;2022-10-31T03:11:08;100974.03;;;11.80;100.00
51928;BME280;37953;52.806;18.270;2022-10-31T03:16:55;100981.03;;;11.88;100.00
51928;BME280;37953;52.806;18.270;2022-10-31T03:19:30;100982.75;;;11.86;100.00
51928;BME280;37953;52.806;18.270;2022-10-31T03:22:16;100984.47;;;11.84;100.00
51928;BME280;37953;52.806;18.270;2022-10-31T03:24:42;100995.00;;;11.96;100.00
51928;BME280;37953;52.806;18.270;2022-10-31T03:27:12;100991.44;;;11.88;100.00
51928;BME280;37953;52.806;18.270;2022-10-31T03:29:42;100994.88;;;11.84;100.00
51928;BME280;37953;52.806;18.270;2022-10-31T03:32:14;100994.00;;;11.83;100.00
51928;BME280;37953;52.806;18.270;2022-10-31T03:34:43;100999.22;;;11.81;100.00
51928;BME280;37953;52.806;18.270;2022-10-31T03:37:17;100987.91;;;11.79;100.00
51928;BME280;37953;52.806;18.270;2022-10-31T03:39:46;101005.25;;;11.80;100.00
51928;BME280;37953;52.806;18.270;2022-10-31T03:42:16;101003.53;;;11.79;100.00
51928;BME280;37953;52.806;18.270;2022-10-31T03:44:50;101003.56;;;11.81;100.00
51928;BME280;37953;52.806;18.270;2022-10-31T03:47:19;101000.91;;;11.76;100.00
51928;BME280;37953;52.806;18.270;2022-10-31T03:49:45;101007.00;;;11.78;100.00
51928;BME280;37953;52.806;18.270;2022-10-31T03:52:49;101007.88;;;11.82;100.00
51928;BME280;37953;52.806;18.270;2022-10-31T03:55:28;101004.38;;;11.78;100.00
51928;BME280;37953;52.806;18.270;2022-10-31T03:58:00;101006.97;;;11.75;100.00
51928;BME280;37953;52.806;18.270;2022-10-31T04:00:30;101008.72;;;11.73;100.00
51928;BME280;37953;52.806;18.270;2022-10-31T04:02:58;101006.94;;;11.72;100.00
51928;BME280;37953;52.806;18.270;2022-10-31T04:05:27;101015.63;;;11.71;100.00
51928;BME280;37953;52.806;18.270;2022-10-31T04:07:56;101003.44;;;11.66;100.00
51928;BME280;37953;52.806;18.270;2022-10-31T04:10:30;101006.91;;;11.66;100.00
51928;BME280;37953;52.806;18.270;2022-10-31T04:13:01;101006.91;;;11.65;100.00
51928;BME280;37953;52.806;18.270;2022-10-31T04:15:31;101007.75;;;11.64;100.00
51928;BME280;37953;52.806;18.270;2022-10-31T04:17:59;101004.28;;;11.61;100.00
51928;BME280;37953;52.806;18.270;2022-10-31T04:20:33;100993.88;;;11.61;100.00
51928;BME280;37953;52.806;18.270;2022-10-31T04:23:00;101000.84;;;11.64;100.00
51928;BME280;37953;52.806;18.270;2022-10-31T04:25:26;101005.19;;;11.65;100.00
51928;BME280;37953;52.806;18.270;2022-10-31T04:27:53;100995.63;;;11.64;100.00
51928;BME280;37953;52.806;18.270;2022-10-31T04:30:19;101006.06;;;11.70;100.00
51928;BME280;37953;52.806;18.270;2022-10-31T04:32:45;100999.16;;;11.71;100.00
51928;BME280;37953;52.806;18.270;2022-10-31T04:35:11;101006.09;;;11.72;100.00
51928;BME280;37953;52.806;18.270;2022-10-31T04:37:37;101003.50;;;11.73;100.00
51928;BME280;37953;52.806;18.270;2022-10-31T04:40:03;101001.75;;;11.74;100.00
51928;BME280;37953;52.806;18.270;2022-10-31T04:42:30;101006.09;;;11.73;100.00
51928;BME280;37953;52.806;18.270;2022-10-31T04:44:55;101000.91;;;11.73;100.00
51928;BME280;37953;52.806;18.270;2022-10-31T04:47:22;101003.50;;;11.73;100.00
51928;BME280;37953;52.806;18.270;2022-10-31T04:49:47;101002.63;;;11.73;100.00
51928;BME280;37953;52.806;18.270;2022-10-31T04:52:14;101006.09;;;11.72;100.00
51928;BME280;37953;52.806;18.270;2022-10-31T04:54:39;101007.81;;;11.71;100.00
51928;BME280;37953;52.806;18.270;2022-10-31T04:57:05;101003.47;;;11.70;100.00
51928;BME280;37953;52.806;18.270;2022-10-31T04:59:31;101007.81;;;11.70;100.00
51928;BME280;37953;52.806;18.270;2022-10-31T05:01:57;100987.78;;;11.61;100.00
51928;BME280;37953;52.806;18.270;2022-10-31T05:04:23;101005.19;;;11.68;100.00
51928;BME280;37953;52.806;18.270;2022-10-31T05:06:49;101003.44;;;11.66;100.00
51928;BME280;37953;52.806;18.270;2022-10-31T05:09:15;101000.84;;;11.66;100.00
51928;BME280;37953;52.806;18.270;2022-10-31T05:11:41;101004.28;;;11.63;100.00
51928;BME280;37953;52.806;18.270;2022-10-31T05:14:07;100997.34;;;11.60;100.00
51928;BME280;37953;52.806;18.270;2022-10-31T05:16:33;100996.47;;;11.61;100.00
51928;BME280;37953;52.806;18.270;2022-10-31T05:18:59;101006.00;;;11.61;100.00
51928;BME280;37953;52.806;18.270;2022-10-31T05:21:24;101009.50;;;11.60;100.00
51928;BME280;37953;52.806;18.270;2022-10-31T05:23:50;101011.19;;;11.59;100.00
51928;BME280;37953;52.806;18.270;2022-10-31T05:26:17;101012.94;;;11.59;100.00
51928;BME280;37953;52.806;18.270;2022-10-31T05:28:43;101009.50;;;11.60;100.00
51928;BME280;37953;52.806;18.270;2022-10-31T05:31:09;100999.88;;;11.53;100.00
51928;BME280;37953;52.806;18.270;2022-10-31T05:33:35;101011.16;;;11.53;100.00
51928;BME280;37953;52.806;18.270;2022-10-31T05:36:01;101009.44;;;11.54;100.00
51928;BME280;37953;52.806;18.270;2022-10-31T05:38:27;101015.47;;;11.51;100.00
51928;BME280;37953;52.806;18.270;2022-10-31T05:40:56;101010.28;;;11.53;100.00
51928;BME280;37953;52.806;18.270;2022-10-31T05:43:28;101018.06;;;11.48;100.00
51928;BME280;37953;52.806;18.270;2022-10-31T05:45:55;101019.78;;;11.49;100.00
51928;BME280;37953;52.806;18.270;2022-10-31T05:48:21;101026.75;;;11.50;100.00
51928;BME280;37953;52.806;18.270;2022-10-31T05:50:48;101029.34;;;11.49;100.00
51928;BME280;37953;52.806;18.270;2022-10-31T05:53:15;101028.44;;;11.47;100.00
51928;BME280;37953;52.806;18.270;2022-10-31T05:55:42;101030.19;;;11.49;100.00
51928;BME280;37953;52.806;18.270;2022-10-31T05:58:10;101030.16;;;11.45;100.00
51928;BME280;37953;52.806;18.270;2022-10-31T06:00:36;101044.09;;;11.50;100.00
51928;BME280;37953;52.806;18.270;2022-10-31T06:03:05;101042.34;;;11.49;100.00
51928;BME280;37953;52.806;18.270;2022-10-31T06:05:31;101038.00;;;11.48;100.00
51928;BME280;37953;52.806;18.270;2022-10-31T06:07:58;101042.34;;;11.47;100.00
51928;BME280;37953;52.806;18.270;2022-10-31T06:10:24;101043.22;;;11.48;100.00
51928;BME280;37953;52.806;18.270;2022-10-31T06:12:50;101037.97;;;11.41;100.00
51928;BME280;37953;52.806;18.270;2022-10-31T06:15:17;101057.06;;;11.47;100.00
51928;BME280;37953;52.806;18.270;2022-10-31T06:17:43;101064.03;;;11.48;100.00
51928;BME280;37953;52.806;18.270;2022-10-31T06:20:09;101047.50;;;11.41;100.00
51928;BME280;37953;52.806;18.270;2022-10-31T06:22:36;101044.88;;;11.39;100.00
51928;BME280;37953;52.806;18.270;2022-10-31T06:25:02;101057.94;;;11.46;100.00
51928;BME280;37953;52.806;18.270;2022-10-31T06:27:28;101057.06;;;11.45;100.00
51928;BME280;37953;52.806;18.270;2022-10-31T06:29:54;101065.75;;;11.46;100.00
51928;BME280;37953;52.806;18.270;2022-10-31T06:32:20;101067.47;;;11.47;100.00
51928;BME280;37953;52.806;18.270;2022-10-31T06:34:46;101065.75;;;11.46;100.00
51928;BME280;37953;52.806;18.270;2022-10-31T06:37:14;101073.56;;;11.47;100.00
51928;BME280;37953;52.806;18.270;2022-10-31T06:39:46;101072.69;;;11.48;100.00
51928;BME280;37953;52.806;18.270;2022-10-31T06:42:15;101072.69;;;11.47;100.00
51928;BME280;37953;52.806;18.270;2022-10-31T06:44:41;101072.69;;;11.47;100.00
51928;BME280;37953;52.806;18.270;2022-10-31T06:47:07;101076.16;;;11.47;100.00
51928;BME280;37953;52.806;18.270;2022-10-31T06:49:33;101067.47;;;11.47;100.00
51928;BME280;37953;52.806;18.270;2022-10-31T06:51:59;101076.16;;;11.49;100.00
51928;BME280;37953;52.806;18.270;2022-10-31T06:54:25;101072.69;;;11.45;100.00
51928;BME280;37953;52.806;18.270;2022-10-31T06:56:52;101064.84;;;11.42;100.00
51928;BME280;37953;52.806;18.270;2022-10-31T06:59:17;101070.97;;;11.49;100.00
51928;BME280;37953;52.806;18.270;2022-10-31T07:01:44;101070.09;;;11.48;100.00
51928;BME280;37953;52.806;18.270;2022-10-31T07:04:10;101075.31;;;11.50;100.00
51928;BME280;37953;52.806;18.270;2022-10-31T07:06:37;101072.72;;;11.51;100.00
51928;BME280;37953;52.806;18.270;2022-10-31T07:09:03;101084.00;;;11.50;100.00
51928;BME280;37953;52.806;18.270;2022-10-31T07:11:30;101082.22;;;11.49;100.00
51928;BME280;37953;52.806;18.270;2022-10-31T07:13:56;101088.34;;;11.50;100.00
51928;BME280;37953;52.806;18.270;2022-10-31T07:16:22;101097.00;;;11.47;100.00
51928;BME280;37953;52.806;18.270;2022-10-31T07:18:48;101097.84;;;11.46;100.00
51928;BME280;37953;52.806;18.270;2022-10-31T07:21:14;101101.31;;;11.48;100.00
51928;BME280;37953;52.806;18.270;2022-10-31T07:23:40;101097.84;;;11.48;100.00
51928;BME280;37953;52.806;18.270;2022-10-31T07:26:08;101104.81;;;11.50;100.00
51928;BME280;37953;52.806;18.270;2022-10-31T07:28:35;101099.63;;;11.53;100.00
51928;BME280;37953;52.806;18.270;2022-10-31T07:31:01;101093.56;;;11.53;100.00
51928;BME280;37953;52.806;18.270;2022-10-31T07:33:27;101106.53;;;11.51;100.00
51928;BME280;37953;52.806;18.270;2022-10-31T07:35:53;101111.75;;;11.51;100.00
51928;BME280;37953;52.806;18.270;2022-10-31T07:38:19;101112.63;;;11.53;100.00
51928;BME280;37953;52.806;18.270;2022-10-31T07:40:52;101120.44;;;11.53;100.00
51928;BME280;37953;52.806;18.270;2022-10-31T07:43:18;101120.44;;;11.53;100.00
51928;BME280;37953;52.806;18.270;2022-10-31T07:45:52;101116.06;;;11.49;100.00
51928;BME280;37953;52.806;18.270;2022-10-31T07:48:18;101115.25;;;11.52;100.00
51928;BME280;37953;52.806;18.270;2022-10-31T07:50:44;101116.97;;;11.53;100.00
51928;BME280;37953;52.806;18.270;2022-10-31T07:53:16;101123.09;;;11.58;100.00
51928;BME280;37953;52.806;18.270;2022-10-31T07:55:43;101125.69;;;11.56;100.00
51928;BME280;37953;52.806;18.270;2022-10-31T07:58:11;101123.94;;;11.57;100.00
51928;BME280;37953;52.806;18.270;2022-10-31T08:00:40;101116.06;;;11.51;100.00
51928;BME280;37953;52.806;18.270;2022-10-31T08:03:11;101135.25;;;11.59;100.00
51928;BME280;37953;52.806;18.270;2022-10-31T08:05:37;101135.22;;;11.57;100.00
51928;BME280;37953;52.806;18.270;2022-10-31T08:08:04;101135.25;;;11.59;100.00
51928;BME280;37953;52.806;18.270;2022-10-31T08:10:31;101137.00;;;11.61;100.00
51928;BME280;37953;52.806;18.270;2022-10-31T08:13:02;101123.09;;;11.59;100.00
51928;BME280;37953;52.806;18.270;2022-10-31T08:15:29;101130.09;;;11.62;100.00
51928;BME280;37953;52.806;18.270;2022-10-31T08:17:56;101134.44;;;11.65;100.00
51928;BME280;37953;52.806;18.270;2022-10-31T08:20:22;101150.03;;;11.66;100.00
51928;BME280;37953;52.806;18.270;2022-10-31T08:25:31;101153.56;;;11.70;100.00
51928;BME280;37953;52.806;18.270;2022-10-31T08:27:57;101153.53;;;11.68;100.00
51928;BME280;37953;52.806;18.270;2022-10-31T08:30:26;101157.91;;;11.69;100.00
51928;BME280;37953;52.806;18.270;2022-10-31T08:33:11;101157.03;;;11.72;100.00
51928;BME280;37953;52.806;18.270;2022-10-31T08:35:38;101152.66;;;11.66;100.00
51928;BME280;37953;52.806;18.270;2022-10-31T08:38:05;101159.66;;;11.73;100.00
51928;BME280;37953;52.806;18.270;2022-10-31T08:40:32;101159.69;;;11.75;100.00
51928;BME280;37953;52.806;18.270;2022-10-31T08:43:06;101152.75;;;11.75;100.00
51928;BME280;37953;52.806;18.270;2022-10-31T08:45:34;101150.09;;;11.72;100.00
51928;BME280;37953;52.806;18.270;2022-10-31T08:48:03;101150.16;;;11.75;100.00
51928;BME280;37953;52.806;18.270;2022-10-31T08:50:36;101154.47;;;11.76;100.00
51928;BME280;37953;52.806;18.270;2022-10-31T08:53:04;101151.03;;;11.77;100.00
51928;BME280;37953;52.806;18.270;2022-10-31T08:55:30;101149.28;;;11.76;100.00
51928;BME280;37953;52.806;18.270;2022-10-31T08:57:57;101148.44;;;11.77;100.00
51928;BME280;37953;52.806;18.270;2022-10-31T09:00:23;101151.91;;;11.78;100.00
51928;BME280;37953;52.806;18.270;2022-10-31T09:02:57;101152.78;;;11.80;100.00
51928;BME280;37953;52.806;18.270;2022-10-31T09:05:24;101149.34;;;11.81;100.00
51928;BME280;37953;52.806;18.270;2022-10-31T09:07:50;101149.31;;;11.82;100.00
51928;BME280;37953;52.806;18.270;2022-10-31T09:10:16;101148.50;;;11.87;100.00
51928;BME280;37953;52.806;18.270;2022-10-31T09:12:42;101151.06;;;11.85;100.00
51928;BME280;37953;52.806;18.270;2022-10-31T09:15:08;101149.41;;;11.89;100.00
51928;BME280;37953;52.806;18.270;2022-10-31T09:17:34;101149.44;;;11.90;100.00
51928;BME280;37953;52.806;18.270;2022-10-31T09:20:00;101152.06;;;11.92;100.00
51928;BME280;37953;52.806;18.270;2022-10-31T09:22:26;101154.69;;;11.95;100.00
51928;BME280;37953;52.806;18.270;2022-10-31T09:24:52;101155.50;;;11.91;100.00
51928;BME280;37953;52.806;18.270;2022-10-31T09:27:18;101159.88;;;11.95;100.00
51928;BME280;37953;52.806;18.270;2022-10-31T09:29:44;101159.88;;;11.95;100.00
51928;BME280;37953;52.806;18.270;2022-10-31T09:32:10;101166.84;;;11.97;100.00
51928;BME280;37953;52.806;18.270;2022-10-31T09:34:37;101163.38;;;11.97;100.00
51928;BME280;37953;52.806;18.270;2022-10-31T09:37:02;101163.41;;;11.98;100.00
51928;BME280;37953;52.806;18.270;2022-10-31T09:39:29;101165.16;;;12.01;100.00
51928;BME280;37953;52.806;18.270;2022-10-31T09:41:58;101170.38;;;12.02;100.00
51928;BME280;37953;52.806;18.270;2022-10-31T09:44:48;101170.38;;;12.04;100.00
51928;BME280;37953;52.806;18.270;2022-10-31T09:50:51;101164.38;;;12.11;100.00
51928;BME280;37953;52.806;18.270;2022-10-31T09:56:28;101174.78;;;12.11;100.00
51928;BME280;37953;52.806;18.270;2022-10-31T09:58:58;101174.78;;;12.11;100.00
51928;BME280;37953;52.806;18.270;2022-10-31T10:01:30;101179.16;;;12.17;100.00
51928;BME280;37953;52.806;18.270;2022-10-31T10:04:03;101179.16;;;12.18;100.00
51928;BME280;37953;52.806;18.270;2022-10-31T10:06:49;101174.84;;;12.20;100.00
51928;BME280;37953;52.806;18.270;2022-10-31T10:09:27;101176.59;;;12.21;100.00
51928;BME280;37953;52.806;18.270;2022-10-31T10:12:04;101173.13;;;12.22;100.00
51928;BME280;37953;52.806;18.270;2022-10-31T10:20:16;101170.56;;;12.26;100.00
51928;BME280;37953;52.806;18.270;2022-10-31T10:26:05;101175.78;;;12.29;100.00
51928;BME280;37953;52.806;18.270;2022-10-31T10:28:38;101170.56;;;12.29;100.00
51928;BME280;37953;52.806;18.270;2022-10-31T10:31:11;101178.41;;;12.30;100.00
51928;BME280;37953;52.806;18.270;2022-10-31T10:33:53;101171.41;;;12.29;100.00
51928;BME280;37953;52.806;18.270;2022-10-31T10:36:44;101179.25;;;12.34;100.00
51928;BME280;37953;52.806;18.270;2022-10-31T10:39:22;101177.53;;;12.36;100.00
51928;BME280;37953;52.806;18.270;2022-10-31T10:41:50;101171.44;;;12.31;100.00
51928;BME280;37953;52.806;18.270;2022-10-31T10:44:40;101181.91;;;12.40;100.00
51928;BME280;37953;52.806;18.270;2022-10-31T10:47:41;101175.88;;;12.42;100.00
51928;BME280;37953;52.806;18.270;2022-10-31T10:50:32;101176.75;;;12.43;100.00
51928;BME280;37953;52.806;18.270;2022-10-31T10:56:41;101181.06;;;12.44;100.00
51928;BME280;37953;52.806;18.270;2022-10-31T10:59:25;101179.31;;;12.40;100.00
51928;BME280;37953;52.806;18.270;2022-10-31T11:01:52;101172.38;;;12.39;100.00
51928;BME280;37953;52.806;18.270;2022-10-31T11:04:33;101177.59;;;12.42;100.00
51928;BME280;37953;52.806;18.270;2022-10-31T11:07:04;101177.59;;;12.42;100.00
51928;BME280;37953;52.806;18.270;2022-10-31T11:09:32;101172.38;;;12.42;100.00
51928;BME280;37953;52.806;18.270;2022-10-31T11:12:09;101175.00;;;12.43;100.00
51928;BME280;37953;52.806;18.270;2022-10-31T11:14:52;101167.19;;;12.45;100.00
51928;BME280;37953;52.806;18.270;2022-10-31T11:17:34;101175.91;;;12.47;100.00
51928;BME280;37953;52.806;18.270;2022-10-31T11:22:47;101172.44;;;12.47;100.00
51928;BME280;37953;52.806;18.270;2022-10-31T11:28:10;101173.28;;;12.47;100.00
51928;BME280;37953;52.806;18.270;2022-10-31T11:30:54;101175.03;;;12.47;100.00
51928;BME280;37953;52.806;18.270;2022-10-31T11:33:34;101169.81;;;12.45;100.00
51928;BME280;37953;52.806;18.270;2022-10-31T11:38:50;101159.34;;;12.42;100.00
51928;BME280;37953;52.806;18.270;2022-10-31T11:43:55;101158.47;;;12.41;100.00
51928;BME280;37953;52.806;18.270;2022-10-31T11:46:33;101170.66;;;12.46;100.00
51928;BME280;37953;52.806;18.270;2022-10-31T11:51:56;101156.75;;;12.42;100.00
51928;BME280;37953;52.806;18.270;2022-10-31T11:54:31;101171.56;;;12.49;100.00
51928;BME280;37953;52.806;18.270;2022-10-31T11:56:58;101176.78;;;12.49;100.00
51928;BME280;37953;52.806;18.270;2022-10-31T11:59:29;101171.56;;;12.51;100.00
51928;BME280;37953;52.806;18.270;2022-10-31T12:02:00;101174.16;;;12.51;100.00
51928;BME280;37953;52.806;18.270;2022-10-31T12:04:45;101184.69;;;12.61;100.00
51928;BME280;37953;52.806;18.270;2022-10-31T12:07:13;101184.66;;;12.58;100.00
51928;BME280;37953;52.806;18.270;2022-10-31T12:09:40;101178.56;;;12.58;100.00
51928;BME280;37953;52.806;18.270;2022-10-31T12:17:57;101175.13;;;12.62;100.00
51928;BME280;37953;52.806;18.270;2022-10-31T12:23:21;101175.97;;;12.62;100.00
51928;BME280;37953;52.806;18.270;2022-10-31T12:26:15;101178.59;;;12.66;100.00
51928;BME280;37953;52.806;18.270;2022-10-31T12:28:50;101181.22;;;12.64;100.00
51928;BME280;37953;52.806;18.270;2022-10-31T12:53:12;101163.00;;;12.72;100.00
51928;BME280;37953;52.806;18.270;2022-10-31T12:58:10;101161.28;;;12.72;100.00
51928;BME280;37953;52.806;18.270;2022-10-31T13:00:44;101155.19;;;12.70;100.00
51928;BME280;37953;52.806;18.270;2022-10-31T13:03:21;101167.38;;;12.74;100.00
51928;BME280;37953;52.806;18.270;2022-10-31T13:06:02;101157.81;;;12.75;100.00
51928;BME280;37953;52.806;18.270;2022-10-31T13:08:39;101155.22;;;12.76;100.00
51928;BME280;37953;52.806;18.270;2022-10-31T13:11:20;101149.13;;;12.77;100.00
51928;BME280;37953;52.806;18.270;2022-10-31T13:16:33;101154.34;;;12.79;100.00
51928;BME280;37953;52.806;18.270;2022-10-31T13:19:07;101150.00;;;12.79;100.00
51928;BME280;37953;52.806;18.270;2022-10-31T13:21:40;101155.22;;;12.81;100.00
51928;BME280;37953;52.806;18.270;2022-10-31T13:24:20;101155.22;;;12.81;100.00
51928;BME280;37953;52.806;18.270;2022-10-31T13:26:52;101158.69;;;12.80;100.00
51928;BME280;37953;52.806;18.270;2022-10-31T13:29:27;101150.88;;;12.81;100.00
51928;BME280;37953;52.806;18.270;2022-10-31T13:31:55;101142.19;;;12.76;100.00
51928;BME280;37953;52.806;18.270;2022-10-31T13:34:29;101148.28;;;12.81;100.00
51928;BME280;37953;52.806;18.270;2022-10-31T13:43:02;101147.41;;;12.81;100.00
51928;BME280;37953;52.806;18.270;2022-10-31T13:45:21;101142.19;;;12.81;100.00
51928;BME280;37953;52.806;18.270;2022-10-31T13:50:41;101147.38;;;12.78;100.00
51928;BME280;37953;52.806;18.270;2022-10-31T13:53:13;101143.06;;;12.83;100.00
51928;BME280;37953;52.806;18.270;2022-10-31T13:56:31;101133.50;;;12.79;100.00
51928;BME280;37953;52.806;18.270;2022-10-31T13:58:32;101138.72;;;12.82;100.00
51928;BME280;37953;52.806;18.270;2022-10-31T14:03:37;101130.03;;;12.78;100.00
51928;BME280;37953;52.806;18.270;2022-10-31T14:06:06;101138.69;;;12.80;100.00
51928;BME280;37953;52.806;18.270;2022-10-31T14:08:36;101128.25;;;12.74;100.00
51928;BME280;37953;52.806;18.270;2022-10-31T14:11:03;101136.09;;;12.80;100.00
51928;BME280;37953;52.806;18.270;2022-10-31T14:13:42;101136.97;;;12.79;100.00
51928;BME280;37953;52.806;18.270;2022-10-31T14:16:26;101136.09;;;12.82;100.00
51928;BME280;37953;52.806;18.270;2022-10-31T14:19:14;101134.34;;;12.82;100.00
51928;BME280;37953;52.806;18.270;2022-10-31T14:21:45;101129.13;;;12.78;100.00
51928;BME280;37953;52.806;18.270;2022-10-31T14:24:35;101131.75;;;12.84;100.00
51928;BME280;37953;52.806;18.270;2022-10-31T14:27:32;101128.25;;;12.80;100.00
51928;BME280;37953;52.806;18.270;2022-10-31T14:29:51;101132.59;;;12.80;100.00
51928;BME280;37953;52.806;18.270;2022-10-31T14:32:25;101119.56;;;12.77;100.00